sensor_id;sensor_type;location;lat;lon;timestamp;P1;durP1;ratioP1;P2;durP2;ratioP2
27632;SDS011;15046;50.930;13.334;2022-07-29T00:00:03;11.13;;;4.78;;
27632;SDS011;15046;50.930;13.334;2022-07-29T00:02:30;8.23;;;4.50;;
27632;SDS011;15046;50.930;13.334;2022-07-29T00:04:57;9.07;;;5.00;;
27632;SDS011;15046;50.930;13.334;2022-07-29T00:07:23;9.55;;;4.55;;
27632;SDS011;15046;50.930;13.334;2022-07-29T00:09:49;7.80;;;4.03;;
27632;SDS011;15046;50.930;13.334;2022-07-29T00:12:15;11.43;;;4.28;;
27632;SDS011;15046;50.930;13.334;2022-07-29T00:14:41;13.77;;;4.45;;
27632;SDS011;15046;50.930;13.334;2022-07-29T00:17:07;10.63;;;4.60;;
27632;SDS011;15046;50.930;13.334;2022-07-29T00:19:33;10.32;;;4.57;;
27632;SDS011;15046;50.930;13.334;2022-07-29T00:21:59;11.77;;;4.57;;
27632;SDS011;15046;50.930;13.334;2022-07-29T00:24:27;9.73;;;4.72;;
27632;SDS011;15046;50.930;13.334;2022-07-29T00:26:53;12.57;;;5.53;;
27632;SDS011;15046;50.930;13.334;2022-07-29T00:29:18;9.20;;;5.18;;
27632;SDS011;15046;50.930;13.334;2022-07-29T00:31:44;11.45;;;5.30;;
27632;SDS011;15046;50.930;13.334;2022-07-29T00:34:10;11.23;;;5.20;;
27632;SDS011;15046;50.930;13.334;2022-07-29T00:36:55;11.52;;;5.30;;
27632;SDS011;15046;50.930;13.334;2022-07-29T00:39:21;14.10;;;5.78;;
27632;SDS011;15046;50.930;13.334;2022-07-29T00:41:47;13.38;;;5.40;;
27632;SDS011;15046;50.930;13.334;2022-07-29T00:44:13;13.93;;;7.50;;
27632;SDS011;15046;50.930;13.334;2022-07-29T00:46:39;12.95;;;6.55;;
27632;SDS011;15046;50.930;13.334;2022-07-29T00:49:05;17.83;;;9.27;;
27632;SDS011;15046;50.930;13.334;2022-07-29T00:51:34;17.98;;;9.43;;
27632;SDS011;15046;50.930;13.334;2022-07-29T00:54:04;17.42;;;10.07;;
27632;SDS011;15046;50.930;13.334;2022-07-29T00:56:31;16.52;;;10.40;;
27632;SDS011;15046;50.930;13.334;2022-07-29T00:58:58;20.50;;;10.25;;
27632;SDS011;15046;50.930;13.334;2022-07-29T01:01:24;18.55;;;11.27;;
27632;SDS011;15046;50.930;13.334;2022-07-29T01:03:51;21.45;;;12.10;;
27632;SDS011;15046;50.930;13.334;2022-07-29T01:06:17;22.52;;;13.50;;
27632;SDS011;15046;50.930;13.334;2022-07-29T01:08:44;26.92;;;14.15;;
27632;SDS011;15046;50.930;13.334;2022-07-29T01:11:12;23.77;;;13.90;;
27632;SDS011;15046;50.930;13.334;2022-07-29T01:13:39;21.67;;;13.55;;
27632;SDS011;15046;50.930;13.334;2022-07-29T01:16:13;22.38;;;14.35;;
27632;SDS011;15046;50.930;13.334;2022-07-29T01:18:46;27.52;;;15.27;;
27632;SDS011;15046;50.930;13.334;2022-07-29T01:21:30;25.75;;;14.32;;
27632;SDS011;15046;50.930;13.334;2022-07-29T01:29:49;26.92;;;15.60;;
27632;SDS011;15046;50.930;13.334;2022-07-29T01:32:22;24.58;;;14.77;;
27632;SDS011;15046;50.930;13.334;2022-07-29T01:34:59;33.67;;;19.65;;
27632;SDS011;15046;50.930;13.334;2022-07-29T01:37:38;28.30;;;18.73;;
27632;SDS011;15046;50.930;13.334;2022-07-29T01:42:57;33.30;;;18.90;;
27632;SDS011;15046;50.930;13.334;2022-07-29T01:45:43;34.85;;;18.88;;
27632;SDS011;15046;50.930;13.334;2022-07-29T01:48:15;31.02;;;19.70;;
27632;SDS011;15046;50.930;13.334;2022-07-29T01:53:26;35.05;;;20.35;;
27632;SDS011;15046;50.930;13.334;2022-07-29T01:55:59;35.20;;;20.25;;
27632;SDS011;15046;50.930;13.334;2022-07-29T01:58:26;30.83;;;19.63;;
27632;SDS011;15046;50.930;13.334;2022-07-29T02:00:55;29.77;;;21.20;;
27632;SDS011;15046;50.930;13.334;2022-07-29T02:03:23;33.13;;;21.33;;
27632;SDS011;15046;50.930;13.334;2022-07-29T02:05:51;33.13;;;20.30;;
27632;SDS011;15046;50.930;13.334;2022-07-29T02:08:18;34.03;;;21.95;;
27632;SDS011;15046;50.930;13.334;2022-07-29T02:10:45;31.88;;;20.98;;
27632;SDS011;15046;50.930;13.334;2022-07-29T02:13:13;38.22;;;21.55;;
27632;SDS011;15046;50.930;13.334;2022-07-29T02:15:42;35.90;;;22.40;;
27632;SDS011;15046;50.930;13.334;2022-07-29T02:18:13;31.98;;;20.75;;
27632;SDS011;15046;50.930;13.334;2022-07-29T02:20:44;34.60;;;21.63;;
27632;SDS011;15046;50.930;13.334;2022-07-29T02:23:16;35.15;;;21.50;;
27632;SDS011;15046;50.930;13.334;2022-07-29T02:25:45;33.03;;;20.77;;
27632;SDS011;15046;50.930;13.334;2022-07-29T02:28:17;34.67;;;22.15;;
27632;SDS011;15046;50.930;13.334;2022-07-29T02:30:45;28.90;;;20.70;;
27632;SDS011;15046;50.930;13.334;2022-07-29T02:33:13;28.80;;;20.08;;
27632;SDS011;15046;50.930;13.334;2022-07-29T02:35:41;27.60;;;19.08;;
27632;SDS011;15046;50.930;13.334;2022-07-29T02:38:11;23.10;;;16.33;;
27632;SDS011;15046;50.930;13.334;2022-07-29T02:41:01;24.38;;;15.23;;
27632;SDS011;15046;50.930;13.334;2022-07-29T02:43:31;22.13;;;13.32;;
27632;SDS011;15046;50.930;13.334;2022-07-29T02:45:59;23.38;;;13.38;;
27632;SDS011;15046;50.930;13.334;2022-07-29T02:48:32;22.05;;;12.63;;
27632;SDS011;15046;50.930;13.334;2022-07-29T02:51:06;20.48;;;11.70;;
27632;SDS011;15046;50.930;13.334;2022-07-29T02:53:37;24.33;;;12.60;;
27632;SDS011;15046;50.930;13.334;2022-07-29T02:56:06;21.42;;;12.13;;
27632;SDS011;15046;50.930;13.334;2022-07-29T02:58:38;22.08;;;12.20;;
27632;SDS011;15046;50.930;13.334;2022-07-29T03:01:16;18.45;;;10.82;;
27632;SDS011;15046;50.930;13.334;2022-07-29T03:06:13;20.63;;;11.48;;
27632;SDS011;15046;50.930;13.334;2022-07-29T03:08:42;16.15;;;10.00;;
27632;SDS011;15046;50.930;13.334;2022-07-29T03:11:09;17.10;;;10.07;;
27632;SDS011;15046;50.930;13.334;2022-07-29T03:13:36;18.08;;;10.30;;
27632;SDS011;15046;50.930;13.334;2022-07-29T03:16:02;18.38;;;10.65;;
27632;SDS011;15046;50.930;13.334;2022-07-29T03:18:29;18.23;;;9.98;;
27632;SDS011;15046;50.930;13.334;2022-07-29T03:20:56;17.50;;;10.40;;
27632;SDS011;15046;50.930;13.334;2022-07-29T03:23:22;17.02;;;9.55;;
27632;SDS011;15046;50.930;13.334;2022-07-29T03:25:50;16.67;;;9.43;;
27632;SDS011;15046;50.930;13.334;2022-07-29T03:28:17;17.45;;;9.55;;
27632;SDS011;15046;50.930;13.334;2022-07-29T03:30:42;18.05;;;9.80;;
27632;SDS011;15046;50.930;13.334;2022-07-29T03:33:08;15.35;;;9.15;;
27632;SDS011;15046;50.930;13.334;2022-07-29T03:35:34;16.50;;;9.95;;
27632;SDS011;15046;50.930;13.334;2022-07-29T03:38:00;18.73;;;10.18;;
27632;SDS011;15046;50.930;13.334;2022-07-29T03:40:27;15.90;;;10.10;;
27632;SDS011;15046;50.930;13.334;2022-07-29T03:43:11;21.27;;;9.98;;
27632;SDS011;15046;50.930;13.334;2022-07-29T03:45:41;16.08;;;10.35;;
27632;SDS011;15046;50.930;13.334;2022-07-29T03:48:12;17.38;;;10.00;;
27632;SDS011;15046;50.930;13.334;2022-07-29T03:50:41;23.08;;;10.02;;
27632;SDS011;15046;50.930;13.334;2022-07-29T03:53:07;16.63;;;9.95;;
27632;SDS011;15046;50.930;13.334;2022-07-29T03:55:40;15.02;;;9.73;;
27632;SDS011;15046;50.930;13.334;2022-07-29T03:58:08;13.73;;;8.88;;
27632;SDS011;15046;50.930;13.334;2022-07-29T04:00:35;17.25;;;9.70;;
27632;SDS011;15046;50.930;13.334;2022-07-29T04:03:02;14.23;;;9.82;;
27632;SDS011;15046;50.930;13.334;2022-07-29T04:05:29;18.60;;;10.23;;
27632;SDS011;15046;50.930;13.334;2022-07-29T04:07:55;18.20;;;10.73;;
27632;SDS011;15046;50.930;13.334;2022-07-29T04:10:21;16.85;;;10.13;;
27632;SDS011;15046;50.930;13.334;2022-07-29T04:12:50;20.63;;;10.05;;
27632;SDS011;15046;50.930;13.334;2022-07-29T04:15:16;22.58;;;10.25;;
27632;SDS011;15046;50.930;13.334;2022-07-29T04:17:42;19.60;;;9.13;;
27632;SDS011;15046;50.930;13.334;2022-07-29T04:20:08;15.10;;;9.38;;
27632;SDS011;15046;50.930;13.334;2022-07-29T04:22:34;16.15;;;9.00;;
27632;SDS011;15046;50.930;13.334;2022-07-29T04:25:00;15.32;;;9.35;;
27632;SDS011;15046;50.930;13.334;2022-07-29T04:27:26;18.70;;;10.10;;
27632;SDS011;15046;50.930;13.334;2022-07-29T04:29:51;16.20;;;8.80;;
27632;SDS011;15046;50.930;13.334;2022-07-29T04:32:17;14.15;;;9.02;;
27632;SDS011;15046;50.930;13.334;2022-07-29T04:34:43;15.35;;;9.20;;
27632;SDS011;15046;50.930;13.334;2022-07-29T04:37:11;16.08;;;9.75;;
27632;SDS011;15046;50.930;13.334;2022-07-29T04:39:37;19.52;;;9.82;;
27632;SDS011;15046;50.930;13.334;2022-07-29T04:42:03;15.13;;;9.55;;
27632;SDS011;15046;50.930;13.334;2022-07-29T04:44:29;15.57;;;8.93;;
27632;SDS011;15046;50.930;13.334;2022-07-29T04:46:55;18.77;;;9.23;;
27632;SDS011;15046;50.930;13.334;2022-07-29T04:49:22;12.73;;;8.45;;
27632;SDS011;15046;50.930;13.334;2022-07-29T04:51:48;18.35;;;10.05;;
27632;SDS011;15046;50.930;13.334;2022-07-29T04:54:14;24.95;;;8.98;;
27632;SDS011;15046;50.930;13.334;2022-07-29T04:56:40;14.60;;;8.23;;
27632;SDS011;15046;50.930;13.334;2022-07-29T04:59:06;15.77;;;8.45;;
27632;SDS011;15046;50.930;13.334;2022-07-29T05:01:32;17.15;;;9.27;;
27632;SDS011;15046;50.930;13.334;2022-07-29T05:03:58;14.95;;;8.73;;
27632;SDS011;15046;50.930;13.334;2022-07-29T05:06:24;14.55;;;8.52;;
27632;SDS011;15046;50.930;13.334;2022-07-29T05:08:50;13.02;;;7.75;;
27632;SDS011;15046;50.930;13.334;2022-07-29T05:11:15;13.77;;;8.43;;
27632;SDS011;15046;50.930;13.334;2022-07-29T05:13:41;17.48;;;8.70;;
27632;SDS011;15046;50.930;13.334;2022-07-29T05:16:07;15.45;;;9.07;;
27632;SDS011;15046;50.930;13.334;2022-07-29T05:18:34;17.52;;;9.88;;
27632;SDS011;15046;50.930;13.334;2022-07-29T05:20:59;14.93;;;7.70;;
27632;SDS011;15046;50.930;13.334;2022-07-29T05:23:25;18.52;;;7.97;;
27632;SDS011;15046;50.930;13.334;2022-07-29T05:25:51;10.93;;;6.80;;
27632;SDS011;15046;50.930;13.334;2022-07-29T05:28:17;13.45;;;6.85;;
27632;SDS011;15046;50.930;13.334;2022-07-29T05:30:42;14.60;;;7.30;;
27632;SDS011;15046;50.930;13.334;2022-07-29T05:33:09;14.30;;;7.68;;
27632;SDS011;15046;50.930;13.334;2022-07-29T05:35:35;13.45;;;7.57;;
27632;SDS011;15046;50.930;13.334;2022-07-29T05:38:02;14.98;;;7.38;;
27632;SDS011;15046;50.930;13.334;2022-07-29T05:40:28;13.40;;;7.13;;
27632;SDS011;15046;50.930;13.334;2022-07-29T05:42:55;11.48;;;6.50;;
27632;SDS011;15046;50.930;13.334;2022-07-29T05:45:21;11.10;;;6.50;;
27632;SDS011;15046;50.930;13.334;2022-07-29T05:47:48;14.05;;;6.60;;
27632;SDS011;15046;50.930;13.334;2022-07-29T05:50:14;11.70;;;6.60;;
27632;SDS011;15046;50.930;13.334;2022-07-29T05:52:39;13.45;;;6.05;;
27632;SDS011;15046;50.930;13.334;2022-07-29T05:55:05;15.23;;;7.35;;
27632;SDS011;15046;50.930;13.334;2022-07-29T05:57:31;14.18;;;6.30;;
27632;SDS011;15046;50.930;13.334;2022-07-29T05:59:57;13.88;;;6.25;;
27632;SDS011;15046;50.930;13.334;2022-07-29T06:02:26;17.65;;;6.55;;
27632;SDS011;15046;50.930;13.334;2022-07-29T06:04:52;12.82;;;5.85;;
27632;SDS011;15046;50.930;13.334;2022-07-29T06:07:18;13.38;;;6.20;;
27632;SDS011;15046;50.930;13.334;2022-07-29T06:09:44;11.85;;;6.20;;
27632;SDS011;15046;50.930;13.334;2022-07-29T06:12:10;12.73;;;6.63;;
27632;SDS011;15046;50.930;13.334;2022-07-29T06:14:35;16.70;;;6.35;;
27632;SDS011;15046;50.930;13.334;2022-07-29T06:17:03;18.35;;;7.20;;
27632;SDS011;15046;50.930;13.334;2022-07-29T06:19:29;13.70;;;5.40;;
27632;SDS011;15046;50.930;13.334;2022-07-29T06:21:55;15.93;;;5.78;;
27632;SDS011;15046;50.930;13.334;2022-07-29T06:24:21;13.30;;;5.55;;
27632;SDS011;15046;50.930;13.334;2022-07-29T06:26:47;17.17;;;5.80;;
27632;SDS011;15046;50.930;13.334;2022-07-29T06:29:12;13.43;;;5.90;;
27632;SDS011;15046;50.930;13.334;2022-07-29T06:31:38;12.20;;;5.97;;
27632;SDS011;15046;50.930;13.334;2022-07-29T06:34:04;14.98;;;6.47;;
27632;SDS011;15046;50.930;13.334;2022-07-29T06:36:30;13.23;;;6.63;;
27632;SDS011;15046;50.930;13.334;2022-07-29T06:38:59;12.00;;;6.35;;
27632;SDS011;15046;50.930;13.334;2022-07-29T06:41:24;14.07;;;6.65;;
27632;SDS011;15046;50.930;13.334;2022-07-29T06:43:51;14.57;;;6.10;;
27632;SDS011;15046;50.930;13.334;2022-07-29T06:46:17;11.07;;;5.68;;
27632;SDS011;15046;50.930;13.334;2022-07-29T06:48:44;11.07;;;5.35;;
27632;SDS011;15046;50.930;13.334;2022-07-29T06:51:10;11.95;;;5.70;;
27632;SDS011;15046;50.930;13.334;2022-07-29T06:53:37;13.75;;;4.97;;
27632;SDS011;15046;50.930;13.334;2022-07-29T06:56:04;15.27;;;4.45;;
27632;SDS011;15046;50.930;13.334;2022-07-29T06:58:31;10.73;;;5.30;;
27632;SDS011;15046;50.930;13.334;2022-07-29T07:00:57;12.35;;;5.72;;
27632;SDS011;15046;50.930;13.334;2022-07-29T07:03:25;15.18;;;5.82;;
27632;SDS011;15046;50.930;13.334;2022-07-29T07:05:52;13.98;;;5.50;;
27632;SDS011;15046;50.930;13.334;2022-07-29T07:08:18;12.90;;;7.10;;
27632;SDS011;15046;50.930;13.334;2022-07-29T07:10:45;14.57;;;7.82;;
27632;SDS011;15046;50.930;13.334;2022-07-29T07:13:11;15.90;;;8.60;;
27632;SDS011;15046;50.930;13.334;2022-07-29T07:15:37;16.25;;;9.30;;
27632;SDS011;15046;50.930;13.334;2022-07-29T07:18:04;17.70;;;9.73;;
27632;SDS011;15046;50.930;13.334;2022-07-29T07:20:31;16.23;;;11.20;;
27632;SDS011;15046;50.930;13.334;2022-07-29T07:22:57;24.55;;;10.02;;
27632;SDS011;15046;50.930;13.334;2022-07-29T07:25:23;22.42;;;10.02;;
27632;SDS011;15046;50.930;13.334;2022-07-29T07:27:49;21.35;;;9.70;;
27632;SDS011;15046;50.930;13.334;2022-07-29T07:30:15;21.58;;;10.52;;
27632;SDS011;15046;50.930;13.334;2022-07-29T07:32:41;13.00;;;9.00;;
27632;SDS011;15046;50.930;13.334;2022-07-29T07:35:07;16.40;;;8.55;;
27632;SDS011;15046;50.930;13.334;2022-07-29T07:37:34;17.42;;;8.18;;
27632;SDS011;15046;50.930;13.334;2022-07-29T07:40:01;15.30;;;8.68;;
27632;SDS011;15046;50.930;13.334;2022-07-29T07:42:27;16.60;;;7.95;;
27632;SDS011;15046;50.930;13.334;2022-07-29T07:44:52;11.27;;;6.55;;
27632;SDS011;15046;50.930;13.334;2022-07-29T07:47:18;15.63;;;8.15;;
27632;SDS011;15046;50.930;13.334;2022-07-29T07:49:51;16.95;;;9.20;;
27632;SDS011;15046;50.930;13.334;2022-07-29T07:52:19;16.60;;;9.45;;
27632;SDS011;15046;50.930;13.334;2022-07-29T07:54:46;19.90;;;8.73;;
27632;SDS011;15046;50.930;13.334;2022-07-29T07:57:12;17.90;;;9.35;;
27632;SDS011;15046;50.930;13.334;2022-07-29T07:59:38;15.77;;;9.57;;
27632;SDS011;15046;50.930;13.334;2022-07-29T08:02:04;17.80;;;8.90;;
27632;SDS011;15046;50.930;13.334;2022-07-29T08:04:31;13.00;;;8.95;;
27632;SDS011;15046;50.930;13.334;2022-07-29T08:06:57;14.95;;;8.75;;
27632;SDS011;15046;50.930;13.334;2022-07-29T08:09:25;17.05;;;9.75;;
27632;SDS011;15046;50.930;13.334;2022-07-29T08:11:52;16.85;;;10.00;;
27632;SDS011;15046;50.930;13.334;2022-07-29T08:14:19;17.73;;;10.27;;
27632;SDS011;15046;50.930;13.334;2022-07-29T08:16:45;10.98;;;7.25;;
27632;SDS011;15046;50.930;13.334;2022-07-29T08:19:11;13.45;;;7.15;;
27632;SDS011;15046;50.930;13.334;2022-07-29T08:21:37;13.48;;;5.68;;
27632;SDS011;15046;50.930;13.334;2022-07-29T08:24:03;11.07;;;6.07;;
27632;SDS011;15046;50.930;13.334;2022-07-29T08:26:48;9.10;;;5.65;;
27632;SDS011;15046;50.930;13.334;2022-07-29T08:29:14;8.70;;;5.85;;
27632;SDS011;15046;50.930;13.334;2022-07-29T08:31:41;12.77;;;6.25;;
27632;SDS011;15046;50.930;13.334;2022-07-29T08:34:08;11.30;;;6.90;;
27632;SDS011;15046;50.930;13.334;2022-07-29T08:36:34;15.43;;;9.82;;
27632;SDS011;15046;50.930;13.334;2022-07-29T08:39:00;26.98;;;11.75;;
27632;SDS011;15046;50.930;13.334;2022-07-29T08:41:26;20.10;;;10.05;;
27632;SDS011;15046;50.930;13.334;2022-07-29T08:43:52;22.40;;;9.70;;
27632;SDS011;15046;50.930;13.334;2022-07-29T08:46:18;22.80;;;10.68;;
27632;SDS011;15046;50.930;13.334;2022-07-29T08:48:45;23.23;;;9.25;;
27632;SDS011;15046;50.930;13.334;2022-07-29T08:51:16;13.60;;;6.00;;
27632;SDS011;15046;50.930;13.334;2022-07-29T08:53:44;12.88;;;6.53;;
27632;SDS011;15046;50.930;13.334;2022-07-29T08:56:13;16.17;;;6.65;;
27632;SDS011;15046;50.930;13.334;2022-07-29T08:58:44;15.35;;;6.43;;
27632;SDS011;15046;50.930;13.334;2022-07-29T09:01:12;13.02;;;5.78;;
27632;SDS011;15046;50.930;13.334;2022-07-29T09:03:41;14.32;;;6.05;;
27632;SDS011;15046;50.930;13.334;2022-07-29T09:06:12;11.45;;;6.00;;
27632;SDS011;15046;50.930;13.334;2022-07-29T09:08:42;8.68;;;5.30;;
27632;SDS011;15046;50.930;13.334;2022-07-29T09:11:09;12.00;;;5.53;;
27632;SDS011;15046;50.930;13.334;2022-07-29T09:13:36;11.13;;;5.28;;
27632;SDS011;15046;50.930;13.334;2022-07-29T09:16:02;15.90;;;6.13;;
27632;SDS011;15046;50.930;13.334;2022-07-29T09:18:39;11.27;;;5.20;;
27632;SDS011;15046;50.930;13.334;2022-07-29T09:21:08;13.95;;;5.03;;
27632;SDS011;15046;50.930;13.334;2022-07-29T09:24:01;11.02;;;5.45;;
27632;SDS011;15046;50.930;13.334;2022-07-29T09:26:30;9.35;;;5.20;;
27632;SDS011;15046;50.930;13.334;2022-07-29T09:28:57;12.07;;;5.18;;
27632;SDS011;15046;50.930;13.334;2022-07-29T09:31:43;11.10;;;6.00;;
27632;SDS011;15046;50.930;13.334;2022-07-29T09:34:14;9.50;;;4.72;;
27632;SDS011;15046;50.930;13.334;2022-07-29T09:36:44;15.40;;;5.35;;
27632;SDS011;15046;50.930;13.334;2022-07-29T09:39:11;8.68;;;4.53;;
27632;SDS011;15046;50.930;13.334;2022-07-29T09:41:48;12.20;;;4.30;;
27632;SDS011;15046;50.930;13.334;2022-07-29T09:44:17;9.30;;;3.92;;
27632;SDS011;15046;50.930;13.334;2022-07-29T09:47:03;12.15;;;4.18;;
27632;SDS011;15046;50.930;13.334;2022-07-29T09:49:36;13.18;;;3.70;;
27632;SDS011;15046;50.930;13.334;2022-07-29T09:52:28;13.15;;;3.97;;
27632;SDS011;15046;50.930;13.334;2022-07-29T09:55:06;10.27;;;3.28;;
27632;SDS011;15046;50.930;13.334;2022-07-29T09:57:33;7.93;;;3.63;;
27632;SDS011;15046;50.930;13.334;2022-07-29T10:00:07;8.63;;;3.53;;
27632;SDS011;15046;50.930;13.334;2022-07-29T10:02:43;7.35;;;3.58;;
27632;SDS011;15046;50.930;13.334;2022-07-29T10:05:25;8.15;;;3.60;;
27632;SDS011;15046;50.930;13.334;2022-07-29T10:07:56;4.63;;;2.80;;
27632;SDS011;15046;50.930;13.334;2022-07-29T10:10:29;8.90;;;3.58;;
27632;SDS011;15046;50.930;13.334;2022-07-29T10:12:56;4.88;;;2.60;;
27632;SDS011;15046;50.930;13.334;2022-07-29T10:15:23;4.18;;;2.67;;
27632;SDS011;15046;50.930;13.334;2022-07-29T10:17:51;8.70;;;2.80;;
27632;SDS011;15046;50.930;13.334;2022-07-29T10:20:17;4.93;;;2.60;;
27632;SDS011;15046;50.930;13.334;2022-07-29T10:22:44;7.00;;;2.80;;
27632;SDS011;15046;50.930;13.334;2022-07-29T10:25:12;7.97;;;3.25;;
27632;SDS011;15046;50.930;13.334;2022-07-29T10:27:40;6.80;;;2.65;;
27632;SDS011;15046;50.930;13.334;2022-07-29T10:30:07;6.63;;;3.08;;
27632;SDS011;15046;50.930;13.334;2022-07-29T10:38:21;4.47;;;2.63;;
27632;SDS011;15046;50.930;13.334;2022-07-29T10:43:53;7.28;;;2.65;;
27632;SDS011;15046;50.930;13.334;2022-07-29T10:46:19;6.50;;;2.92;;
27632;SDS011;15046;50.930;13.334;2022-07-29T10:49:04;8.20;;;2.90;;
27632;SDS011;15046;50.930;13.334;2022-07-29T11:02:41;5.47;;;2.90;;
27632;SDS011;15046;50.930;13.334;2022-07-29T11:05:09;6.05;;;2.65;;
27632;SDS011;15046;50.930;13.334;2022-07-29T11:07:38;5.65;;;2.60;;
27632;SDS011;15046;50.930;13.334;2022-07-29T11:18:17;10.07;;;3.03;;
27632;SDS011;15046;50.930;13.334;2022-07-29T11:20:47;5.70;;;3.10;;
27632;SDS011;15046;50.930;13.334;2022-07-29T11:23:25;5.70;;;2.63;;
27632;SDS011;15046;50.930;13.334;2022-07-29T11:39:37;4.82;;;2.60;;
27632;SDS011;15046;50.930;13.334;2022-07-29T11:43:04;4.38;;;2.53;;
27632;SDS011;15046;50.930;13.334;2022-07-29T11:45:05;5.82;;;2.40;;
27632;SDS011;15046;50.930;13.334;2022-07-29T11:47:37;7.10;;;2.83;;
27632;SDS011;15046;50.930;13.334;2022-07-29T11:50:06;5.53;;;2.80;;
27632;SDS011;15046;50.930;13.334;2022-07-29T11:52:38;5.18;;;2.83;;
27632;SDS011;15046;50.930;13.334;2022-07-29T11:55:11;6.15;;;2.60;;
27632;SDS011;15046;50.930;13.334;2022-07-29T11:57:48;6.30;;;2.42;;
27632;SDS011;15046;50.930;13.334;2022-07-29T12:00:29;4.85;;;2.72;;
27632;SDS011;15046;50.930;13.334;2022-07-29T12:03:22;7.07;;;2.80;;
27632;SDS011;15046;50.930;13.334;2022-07-29T12:05:51;3.75;;;2.67;;
27632;SDS011;15046;50.930;13.334;2022-07-29T12:08:20;6.53;;;2.78;;
27632;SDS011;15046;50.930;13.334;2022-07-29T12:10:48;6.82;;;3.05;;
27632;SDS011;15046;50.930;13.334;2022-07-29T12:13:16;5.65;;;2.42;;
27632;SDS011;15046;50.930;13.334;2022-07-29T12:15:54;5.35;;;2.83;;
27632;SDS011;15046;50.930;13.334;2022-07-29T12:18:22;8.30;;;3.17;;
27632;SDS011;15046;50.930;13.334;2022-07-29T12:20:49;5.45;;;2.90;;
27632;SDS011;15046;50.930;13.334;2022-07-29T12:25:55;7.65;;;3.03;;
27632;SDS011;15046;50.930;13.334;2022-07-29T12:28:23;10.70;;;2.90;;
27632;SDS011;15046;50.930;13.334;2022-07-29T12:30:50;7.10;;;2.70;;
27632;SDS011;15046;50.930;13.334;2022-07-29T12:33:26;8.35;;;2.78;;
27632;SDS011;15046;50.930;13.334;2022-07-29T12:36:00;8.32;;;3.17;;
27632;SDS011;15046;50.930;13.334;2022-07-29T12:38:28;7.60;;;3.10;;
27632;SDS011;15046;50.930;13.334;2022-07-29T12:40:54;6.88;;;2.85;;
27632;SDS011;15046;50.930;13.334;2022-07-29T12:43:21;6.32;;;2.53;;
27632;SDS011;15046;50.930;13.334;2022-07-29T12:45:49;13.32;;;3.00;;
27632;SDS011;15046;50.930;13.334;2022-07-29T12:48:16;4.65;;;2.72;;
27632;SDS011;15046;50.930;13.334;2022-07-29T12:50:53;7.65;;;2.60;;
27632;SDS011;15046;50.930;13.334;2022-07-29T12:53:26;6.07;;;2.72;;
27632;SDS011;15046;50.930;13.334;2022-07-29T12:55:53;16.25;;;3.88;;
27632;SDS011;15046;50.930;13.334;2022-07-29T12:58:37;5.55;;;2.83;;
27632;SDS011;15046;50.930;13.334;2022-07-29T13:01:16;6.50;;;2.90;;
27632;SDS011;15046;50.930;13.334;2022-07-29T13:03:48;6.22;;;2.40;;
27632;SDS011;15046;50.930;13.334;2022-07-29T13:06:31;6.35;;;2.80;;
27632;SDS011;15046;50.930;13.334;2022-07-29T13:09:09;10.32;;;3.03;;
27632;SDS011;15046;50.930;13.334;2022-07-29T13:11:43;5.35;;;2.58;;
27632;SDS011;15046;50.930;13.334;2022-07-29T13:14:13;4.90;;;2.85;;
27632;SDS011;15046;50.930;13.334;2022-07-29T13:17:03;9.38;;;4.95;;
27632;SDS011;15046;50.930;13.334;2022-07-29T13:22:15;5.30;;;2.50;;
27632;SDS011;15046;50.930;13.334;2022-07-29T13:24:59;8.43;;;2.58;;
27632;SDS011;15046;50.930;13.334;2022-07-29T13:27:34;5.60;;;2.60;;
27632;SDS011;15046;50.930;13.334;2022-07-29T13:30:06;9.02;;;2.60;;
27632;SDS011;15046;50.930;13.334;2022-07-29T13:32:34;5.80;;;2.77;;
27632;SDS011;15046;50.930;13.334;2022-07-29T13:35:03;4.82;;;2.38;;
27632;SDS011;15046;50.930;13.334;2022-07-29T13:37:31;4.63;;;2.45;;
27632;SDS011;15046;50.930;13.334;2022-07-29T13:39:59;6.93;;;2.95;;
27632;SDS011;15046;50.930;13.334;2022-07-29T13:42:25;6.63;;;3.08;;
27632;SDS011;15046;50.930;13.334;2022-07-29T13:44:51;4.70;;;2.40;;
27632;SDS011;15046;50.930;13.334;2022-07-29T13:47:18;5.13;;;2.80;;
27632;SDS011;15046;50.930;13.334;2022-07-29T13:49:44;6.05;;;2.40;;
27632;SDS011;15046;50.930;13.334;2022-07-29T13:52:10;4.85;;;2.72;;
27632;SDS011;15046;50.930;13.334;2022-07-29T13:54:36;3.80;;;2.40;;
27632;SDS011;15046;50.930;13.334;2022-07-29T13:57:05;5.55;;;2.65;;
27632;SDS011;15046;50.930;13.334;2022-07-29T13:59:32;4.47;;;2.72;;
27632;SDS011;15046;50.930;13.334;2022-07-29T14:01:58;7.03;;;2.80;;
27632;SDS011;15046;50.930;13.334;2022-07-29T14:04:24;8.82;;;2.90;;
27632;SDS011;15046;50.930;13.334;2022-07-29T14:06:50;4.30;;;2.58;;
27632;SDS011;15046;50.930;13.334;2022-07-29T14:09:16;4.47;;;2.25;;
27632;SDS011;15046;50.930;13.334;2022-07-29T14:11:42;6.88;;;2.75;;
27632;SDS011;15046;50.930;13.334;2022-07-29T14:14:08;5.18;;;2.55;;
27632;SDS011;15046;50.930;13.334;2022-07-29T14:16:35;6.97;;;2.75;;
27632;SDS011;15046;50.930;13.334;2022-07-29T14:19:01;7.90;;;2.83;;
27632;SDS011;15046;50.930;13.334;2022-07-29T14:21:27;4.72;;;2.47;;
27632;SDS011;15046;50.930;13.334;2022-07-29T14:23:53;4.68;;;2.85;;
27632;SDS011;15046;50.930;13.334;2022-07-29T14:26:20;5.90;;;2.65;;
27632;SDS011;15046;50.930;13.334;2022-07-29T14:28:47;6.63;;;3.08;;
27632;SDS011;15046;50.930;13.334;2022-07-29T14:31:13;4.20;;;2.80;;
27632;SDS011;15046;50.930;13.334;2022-07-29T14:33:39;6.78;;;2.50;;
27632;SDS011;15046;50.930;13.334;2022-07-29T14:36:05;5.28;;;2.70;;
27632;SDS011;15046;50.930;13.334;2022-07-29T14:38:31;5.80;;;2.70;;
27632;SDS011;15046;50.930;13.334;2022-07-29T14:40:56;8.10;;;2.83;;
27632;SDS011;15046;50.930;13.334;2022-07-29T14:43:22;5.00;;;2.67;;
27632;SDS011;15046;50.930;13.334;2022-07-29T14:45:48;6.88;;;2.90;;
27632;SDS011;15046;50.930;13.334;2022-07-29T14:48:14;8.20;;;2.65;;
27632;SDS011;15046;50.930;13.334;2022-07-29T14:50:40;4.95;;;2.95;;
27632;SDS011;15046;50.930;13.334;2022-07-29T14:53:06;4.55;;;2.58;;
27632;SDS011;15046;50.930;13.334;2022-07-29T14:55:31;7.65;;;2.90;;
27632;SDS011;15046;50.930;13.334;2022-07-29T14:57:57;10.30;;;3.10;;
27632;SDS011;15046;50.930;13.334;2022-07-29T15:00:24;5.60;;;2.40;;
27632;SDS011;15046;50.930;13.334;2022-07-29T15:02:50;4.72;;;2.90;;
27632;SDS011;15046;50.930;13.334;2022-07-29T15:05:16;4.68;;;2.70;;
27632;SDS011;15046;50.930;13.334;2022-07-29T15:07:42;6.43;;;2.85;;
27632;SDS011;15046;50.930;13.334;2022-07-29T15:10:08;7.47;;;2.50;;
27632;SDS011;15046;50.930;13.334;2022-07-29T15:12:34;5.70;;;2.97;;
27632;SDS011;15046;50.930;13.334;2022-07-29T15:15:00;5.72;;;2.92;;
27632;SDS011;15046;50.930;13.334;2022-07-29T15:17:26;5.90;;;2.38;;
27632;SDS011;15046;50.930;13.334;2022-07-29T15:19:51;8.10;;;2.67;;
27632;SDS011;15046;50.930;13.334;2022-07-29T15:22:17;5.40;;;2.63;;
27632;SDS011;15046;50.930;13.334;2022-07-29T15:24:43;6.18;;;2.92;;
27632;SDS011;15046;50.930;13.334;2022-07-29T15:27:09;9.50;;;3.22;;
27632;SDS011;15046;50.930;13.334;2022-07-29T15:29:39;8.10;;;3.00;;
27632;SDS011;15046;50.930;13.334;2022-07-29T15:32:06;8.90;;;3.15;;